createdAt,value
2023-02-08T00:01:13.501Z,84.72
2023-02-08T00:06:18.064Z,84.57
2023-02-08T00:11:20.999Z,85.82
2023-02-08T00:16:23.978Z,84.98
2023-02-08T00:21:28.087Z,83.34
2023-02-08T00:26:30.874Z,83.54
2023-02-08T00:31:33.702Z,83.63
2023-02-08T00:36:37.958Z,84.52
2023-02-08T00:41:40.640Z,83.80
2023-02-08T00:46:43.419Z,84.08
2023-02-08T00:51:48.171Z,85.44
2023-02-08T00:56:50.896Z,85.85
2023-02-08T01:01:55.010Z,87.61
2023-02-08T01:07:00.406Z,88.30
2023-02-08T01:12:03.318Z,87.25
2023-02-08T01:17:06.205Z,88.07
2023-02-08T01:22:10.435Z,89.16
2023-02-08T01:27:13.636Z,88.40
2023-02-08T01:32:16.364Z,87.45
2023-02-08T01:37:20.564Z,84.85
2023-02-08T01:42:23.565Z,86.27
2023-02-08T01:47:26.426Z,85.86
2023-02-08T01:52:30.702Z,87.10
2023-02-08T01:57:33.838Z,86.88
2023-02-08T02:02:38.094Z,88.08
2023-02-08T02:07:42.585Z,87.46
2023-02-08T02:12:46.537Z,88.07
2023-02-08T02:17:49.643Z,87.84
2023-02-08T02:23:37.224Z,88.32
2023-02-08T02:29:07.370Z,87.69
2023-02-08T02:34:21.247Z,86.52
2023-02-08T02:39:32.904Z,85.99
2023-02-08T02:44:40.026Z,86.07
2023-02-08T02:49:51.249Z,86.40
2023-02-08T02:54:56.893Z,86.63
2023-02-08T03:00:01.090Z,86.86
2023-02-08T03:05:11.661Z,86.87
2023-02-08T03:10:27.220Z,87.27
2023-02-08T03:15:41.288Z,86.57
2023-02-08T03:20:50.552Z,86.81
2023-02-08T03:26:01.680Z,88.15
2023-02-08T03:31:09.686Z,87.82
2023-02-08T03:36:23.071Z,88.03
2023-02-08T03:41:31.929Z,88.81
2023-02-08T03:46:39.050Z,86.87
2023-02-08T03:51:45.211Z,86.21
2023-02-08T03:56:52.628Z,88.43
2023-02-08T04:01:59.204Z,87.76
2023-02-08T04:07:03.555Z,88.03
2023-02-08T04:12:06.890Z,88.39
2023-02-08T04:17:09.727Z,87.53
2023-02-08T04:22:13.837Z,88.38
2023-02-08T04:27:16.705Z,87.25
2023-02-08T04:32:19.497Z,87.42
2023-02-08T04:37:24.659Z,87.82
2023-02-08T04:42:27.609Z,88.88
2023-02-08T04:47:30.364Z,88.99
2023-02-08T04:52:34.417Z,88.51
2023-02-08T04:57:37.193Z,88.39
2023-02-08T05:02:39.921Z,88.23
2023-02-08T05:07:44.209Z,86.48
2023-02-08T05:12:47.048Z,87.75
2023-02-08T05:17:49.929Z,87.51
2023-02-08T05:22:54.017Z,88.28
2023-02-08T05:27:56.795Z,88.46
2023-02-08T05:32:59.582Z,89.61
2023-02-08T05:38:03.714Z,88.80
2023-02-08T05:43:06.463Z,88.69
2023-02-08T05:48:09.242Z,88.56
2023-02-08T05:53:13.503Z,89.51
2023-02-08T05:58:16.600Z,89.04
2023-02-08T06:03:19.458Z,88.99
2023-02-08T06:08:23.611Z,89.52
2023-02-08T06:13:26.431Z,89.66
2023-02-08T06:18:29.388Z,89.83
2023-02-08T06:23:33.528Z,90.45
2023-02-08T06:28:36.299Z,90.83
2023-02-08T06:33:39.125Z,90.06
2023-02-08T06:38:43.248Z,90.01
2023-02-08T06:43:46.216Z,89.16
2023-02-08T06:48:48.948Z,89.39
2023-02-08T06:53:53.770Z,88.57
2023-02-08T06:58:57.346Z,88.87
2023-02-08T07:04:00.978Z,89.17
2023-02-08T07:09:05.729Z,91.04
2023-02-08T07:14:08.550Z,90.67
2023-02-08T07:19:11.324Z,90.13
2023-02-08T07:24:15.419Z,88.87
2023-02-08T07:29:18.218Z,88.38
2023-02-08T07:34:22.262Z,89.29
2023-02-08T07:39:26.794Z,89.63
2023-02-08T07:44:29.658Z,87.40
2023-02-08T07:49:32.484Z,86.95
2023-02-08T07:54:36.571Z,86.24
2023-02-08T07:59:39.338Z,85.59
2023-02-08T08:04:42.223Z,84.71
2023-02-08T08:09:46.511Z,84.91
2023-02-08T08:14:49.329Z,84.12
2023-02-08T08:19:52.070Z,83.59
2023-02-08T08:24:56.203Z,84.05
2023-02-08T08:29:59.843Z,82.74
2023-02-08T08:35:02.605Z,80.77
2023-02-08T08:40:08.706Z,80.82
2023-02-08T08:45:12.609Z,79.65
2023-02-08T08:50:15.871Z,78.95
2023-02-08T08:55:20.350Z,77.96
2023-02-08T09:00:23.585Z,77.31
2023-02-08T09:05:26.611Z,76.94
2023-02-08T09:10:31.449Z,77.57
2023-02-08T09:15:34.423Z,77.97
2023-02-08T09:20:38.764Z,78.02
2023-02-08T09:25:43.152Z,77.50
2023-02-08T09:30:46.240Z,77.39
2023-02-08T09:35:49.663Z,77.07
2023-02-08T09:41:05.299Z,74.83
2023-02-08T09:46:16.087Z,74.28
2023-02-08T09:51:26.317Z,72.94
2023-02-08T09:56:36.263Z,72.76
2023-02-08T10:01:39.489Z,71.96
2023-02-08T10:06:45.343Z,70.08
2023-02-08T10:12:03.697Z,68.13
2023-02-08T10:17:25.339Z,65.82
2023-02-08T10:22:39.564Z,65.49
2023-02-08T10:27:53.846Z,66.24
2023-02-08T10:33:02.122Z,65.95
2023-02-08T10:38:25.191Z,64.69
2023-02-08T10:43:38.645Z,64.68
2023-02-08T10:49:03.699Z,64.87
2023-02-08T10:54:06.892Z,64.08
2023-02-08T10:59:17.841Z,65.46
2023-02-08T11:04:21.566Z,65.49
2023-02-08T11:09:27.426Z,63.34
2023-02-08T11:14:46.711Z,64.33
2023-02-08T11:19:51.824Z,63.68
2023-02-08T11:24:57.887Z,63.43
2023-02-08T11:30:21.453Z,64.79
2023-02-08T11:35:26.897Z,64.47
2023-02-08T11:40:36.770Z,62.29
2023-02-08T11:45:47.695Z,61.00
2023-02-08T11:50:55.599Z,61.51
2023-02-08T11:56:05.022Z,61.12
2023-02-08T12:01:20.329Z,59.26
2023-02-08T12:06:50.267Z,58.43
2023-02-08T12:12:02.389Z,58.43
2023-02-08T12:17:36.973Z,58.63
2023-02-08T12:22:43.860Z,57.54
2023-02-08T12:27:53.406Z,57.02
2023-02-08T12:33:25.381Z,57.18
2023-02-08T12:39:17.902Z,56.62
2023-02-08T12:44:33.788Z,55.56
2023-02-08T12:49:58.710Z,53.96
2023-02-08T12:55:04.005Z,53.27
2023-02-08T13:00:15.831Z,52.43
2023-02-08T13:05:23.318Z,51.80
2023-02-08T13:10:30.412Z,51.12
2023-02-08T13:15:40.532Z,51.11
2023-02-08T13:20:48.993Z,51.15
2023-02-08T13:25:53.222Z,51.16
2023-02-08T13:31:00.993Z,50.40
2023-02-08T13:36:06.069Z,50.19
2023-02-08T13:41:17.632Z,49.33
2023-02-08T13:46:23.000Z,48.75
2023-02-08T13:52:03.350Z,48.72
2023-02-08T13:57:44.983Z,48.30
2023-02-08T14:03:01.115Z,46.85
2023-02-08T14:08:07.217Z,46.50
2023-02-08T14:13:26.763Z,45.87
2023-02-08T14:18:31.474Z,44.98
2023-02-08T14:23:40.222Z,44.45
2023-02-08T14:28:48.768Z,44.29
2023-02-08T14:33:56.045Z,44.03
2023-02-08T14:39:26.178Z,44.28
2023-02-08T14:44:59.326Z,44.08
2023-02-08T14:50:13.976Z,43.83
2023-02-08T14:55:20.900Z,43.58
2023-02-08T15:00:27.210Z,46.68
2023-02-08T15:05:36.245Z,48.50
2023-02-08T15:10:44.755Z,50.38
2023-02-08T15:15:53.484Z,51.53
2023-02-08T15:21:00.710Z,51.81
2023-02-08T15:26:05.714Z,51.68
2023-02-08T15:31:10.666Z,52.01
2023-02-08T15:36:19.890Z,52.67
2023-02-08T15:41:27.245Z,53.00
2023-02-08T15:46:30.859Z,53.85
2023-02-08T15:51:35.190Z,54.52
2023-02-08T15:56:42.404Z,54.86
2023-02-08T16:01:48.003Z,55.20
2023-02-08T16:06:55.151Z,55.22
2023-02-08T16:12:01.188Z,56.12
2023-02-08T16:17:05.130Z,56.80
2023-02-08T16:22:30.594Z,56.93
2023-02-08T16:27:33.759Z,56.72
2023-02-08T16:32:39.647Z,57.67
2023-02-08T16:37:44.014Z,57.46
2023-02-08T16:42:46.993Z,57.41
2023-02-08T16:47:53.060Z,58.60
2023-02-08T16:53:00.870Z,59.26
2023-02-08T16:58:03.865Z,60.22
2023-02-08T17:03:06.651Z,60.67
2023-02-08T17:08:16.487Z,61.57
2023-02-08T17:13:21.449Z,62.87
2023-02-08T17:18:24.308Z,64.81
2023-02-08T17:23:28.746Z,64.55
2023-02-08T17:28:34.468Z,64.76
2023-02-08T17:33:40.083Z,65.51
2023-02-08T17:38:46.072Z,65.46
2023-02-08T17:43:50.998Z,65.02
2023-02-08T17:48:54.372Z,65.93
2023-02-08T17:53:58.591Z,64.74
2023-02-08T17:59:03.902Z,66.18
2023-02-08T18:04:06.974Z,65.88
2023-02-08T18:09:11.206Z,66.89
2023-02-08T18:14:14.274Z,69.32
2023-02-08T18:19:17.206Z,70.36
2023-02-08T18:24:21.406Z,70.55
2023-02-08T18:29:24.912Z,70.83
2023-02-08T18:34:27.829Z,71.24
2023-02-08T18:39:32.221Z,71.69
2023-02-08T18:44:36.806Z,71.47
2023-02-08T18:49:41.353Z,71.56
2023-02-08T18:54:45.580Z,70.19
2023-02-08T18:59:48.441Z,71.27
2023-02-08T19:04:51.261Z,71.38
2023-02-08T19:09:55.628Z,71.55
2023-02-08T19:15:00.009Z,71.56
2023-02-08T19:20:02.954Z,70.32
2023-02-08T19:25:08.426Z,70.62
2023-02-08T19:30:16.006Z,70.20
2023-02-08T19:35:19.752Z,70.31
2023-02-08T19:40:24.625Z,71.32
2023-02-08T19:45:27.547Z,70.70
2023-02-08T19:50:30.547Z,70.60
2023-02-08T19:55:34.707Z,71.05
2023-02-08T20:00:37.564Z,71.69
2023-02-08T20:05:50.149Z,71.36
2023-02-08T20:11:01.558Z,71.27
2023-02-08T20:16:11.102Z,71.52
2023-02-08T20:21:24.009Z,72.67
2023-02-08T20:26:39.703Z,72.65
2023-02-08T20:31:57.560Z,74.36
2023-02-08T20:37:07.647Z,74.88
2023-02-08T20:42:17.633Z,75.11
2023-02-08T20:47:28.540Z,75.87
2023-02-08T20:52:41.235Z,75.98
2023-02-08T20:57:59.008Z,77.08
2023-02-08T21:03:10.305Z,77.22
2023-02-08T21:08:15.361Z,78.07
2023-02-08T21:13:21.266Z,77.78
2023-02-08T21:18:25.527Z,78.39
2023-02-08T21:23:34.495Z,78.50
2023-02-08T21:28:41.470Z,77.86
2023-02-08T21:33:47.155Z,78.78
2023-02-08T21:38:56.874Z,79.29
2023-02-08T21:44:11.785Z,79.04
2023-02-08T21:49:31.962Z,78.01
2023-02-08T21:54:53.144Z,79.33
2023-02-08T21:59:59.520Z,79.49
2023-02-08T22:05:04.394Z,79.70
2023-02-08T22:10:08.232Z,79.24
2023-02-08T22:15:14.772Z,79.12
2023-02-08T22:20:17.704Z,79.83
2023-02-08T22:25:21.167Z,77.82
2023-02-08T22:30:25.810Z,78.66
2023-02-08T22:35:28.884Z,79.11
2023-02-08T22:40:31.697Z,78.73
2023-02-08T22:45:36.037Z,77.31
2023-02-08T22:50:39.686Z,78.15
2023-02-08T22:55:49.661Z,78.44
2023-02-08T23:00:53.806Z,78.25
2023-02-08T23:05:56.690Z,78.19
2023-02-08T23:11:01.176Z,78.29
2023-02-08T23:16:08.216Z,79.45
2023-02-08T23:21:13.783Z,79.24
2023-02-08T23:26:19.865Z,80.09
2023-02-08T23:31:24.105Z,79.96
2023-02-08T23:36:27.605Z,79.28
2023-02-08T23:41:30.436Z,80.75
2023-02-08T23:46:34.773Z,80.47
2023-02-08T23:51:37.896Z,81.42
2023-02-08T23:56:40.785Z,82.12
